Time;durP1;ratioP1;P1;durP2;ratioP2;P2;SDS_P1;SDS_P2;PMS_P1;PMS_P2;Temp;Humidity;BMP_temperature;BMP_pressure;BME280_temperature;BME280_humidity;BME280_pressure;Samples;Min_cycle;Max_cycle;Signal;HPM_P1;HPM_P2
2022/05/08 00:00:40;;;;;;;;;27.75;26.00;;;;;15.55;100.00;102011.00;4981035;28;44792;-85
2022/05/08 00:03:06;;;;;;;;;31.00;27.25;;;;;15.44;100.00;102016.25;4980659;28;47055;-86
2022/05/08 00:05:31;;;;;;;;;25.75;23.50;;;;;15.41;100.00;102019.97;4963910;28;45542;-85
2022/05/08 00:07:57;;;;;;;;;35.25;33.50;;;;;15.39;100.00;102016.53;4962583;28;45416;-85
2022/05/08 00:10:25;;;;;;;;;31.25;27.75;;;;;15.38;100.00;102020.19;4963293;28;45707;-84
2022/05/08 00:12:50;;;;;;;;;31.00;25.75;;;;;15.39;100.00;102007.66;4980187;28;46575;-84
2022/05/08 00:15:16;;;;;;;;;21.25;20.50;;;;;15.37;100.00;102013.09;4964001;28;45266;-84
2022/05/08 00:17:41;;;;;;;;;29.25;24.50;;;;;15.36;100.00;102013.19;4966605;28;45253;-84
2022/05/08 00:20:08;;;;;;;;;32.25;28.50;;;;;15.34;100.00;102012.47;4973841;28;45617;-84
2022/05/08 00:22:34;;;;;;;;;36.00;30.50;;;;;15.28;100.00;102005.69;4973736;28;47756;-84
2022/05/08 00:25:02;;;;;;;;;28.75;19.50;;;;;15.25;100.00;102005.03;4983559;28;44756;-85
2022/05/08 00:27:27;;;;;;;;;26.00;24.50;;;;;15.24;100.00;102008.69;4962009;28;44785;-84
2022/05/08 00:29:54;;;;;;;;;34.25;29.75;;;;;15.20;100.00;102005.34;4962064;28;45374;-85
2022/05/08 00:32:21;;;;;;;;;28.25;26.50;;;;;15.17;100.00;102002.84;4979540;28;45496;-84
2022/05/08 00:34:47;;;;;;;;;29.25;24.75;;;;;15.13;100.00;101996.88;4965634;28;45382;-85
2022/05/08 00:37:14;;;;;;;;;25.50;21.00;;;;;15.05;100.00;102017.06;4978525;28;45270;-85
2022/05/08 00:39:39;;;;;;;;;29.00;27.50;;;;;14.98;100.00;102018.41;4961552;28;44971;-84
2022/05/08 00:42:05;;;;;;;;;28.75;26.25;;;;;14.94;100.00;102007.06;4979602;28;45169;-84
2022/05/08 00:44:30;;;;;;;;;29.75;29.25;;;;;14.89;100.00;102007.34;4960839;28;45290;-85
2022/05/08 00:46:56;;;;;;;;;16.75;16.75;;;;;14.85;100.00;102011.19;4961253;28;45356;-85
2022/05/08 00:49:22;;;;;;;;;29.25;26.75;;;;;14.81;100.00;102017.69;4981378;28;45776;-85
2022/05/08 00:51:49;;;;;;;;;26.00;22.25;;;;;14.75;100.00;102015.41;4963955;28;47168;-84
2022/05/08 00:54:14;;;;;;;;;22.00;19.00;;;;;14.76;100.00;102009.09;4960786;28;45508;-84
2022/05/08 00:56:40;;;;;;;;;25.50;24.75;;;;;14.75;100.00;102004.72;4960770;28;45267;-85
2022/05/08 00:59:06;;;;;;;;;29.75;21.75;;;;;14.73;100.00;102005.75;4960857;28;44863;-85
2022/05/08 01:01:32;;;;;;;;;30.00;26.25;;;;;14.62;100.00;102019.81;4966300;28;46104;-85
2022/05/08 01:03:57;;;;;;;;;30.00;28.50;;;;;14.61;100.00;102016.28;4974345;28;44649;-83
2022/05/08 01:06:23;;;;;;;;;21.75;19.50;;;;;14.57;100.00;102028.13;4967817;28;44961;-86
2022/05/08 01:08:50;;;;;;;;;21.25;21.00;;;;;14.52;100.00;102018.69;4964271;28;44903;-84
2022/05/08 01:11:17;;;;;;;;;25.75;25.00;;;;;14.46;100.00;102017.22;4983027;28;46652;-84
2022/05/08 01:13:43;;;;;;;;;26.25;24.50;;;;;14.42;100.00;102020.19;4965819;28;44758;-83
2022/05/08 01:16:12;;;;;;;;;28.50;24.25;;;;;14.35;100.00;102022.38;4968101;28;45477;-84
2022/05/08 01:18:38;;;;;;;;;21.50;21.00;;;;;14.36;100.00;102021.44;4968396;28;44820;-84
2022/05/08 01:21:07;;;;;;;;;20.75;19.75;;;;;14.30;100.00;102022.66;4984135;28;46041;-84
2022/05/08 01:23:33;;;;;;;;;15.75;13.50;;;;;14.28;100.00;102016.56;4967458;28;45459;-84
2022/05/08 01:25:58;;;;;;;;;33.75;31.75;;;;;14.23;100.00;102023.13;4969624;28;45541;-84
2022/05/08 01:28:25;;;;;;;;;35.75;31.25;;;;;14.21;100.00;102017.00;4966714;28;44952;-83
2022/05/08 01:30:52;;;;;;;;;29.25;26.25;;;;;14.22;100.00;102000.91;4982459;28;46293;-84
2022/05/08 01:33:19;;;;;;;;;23.75;23.75;;;;;14.22;100.00;102008.06;4971555;28;44871;-82
2022/05/08 01:35:45;;;;;;;;;34.25;29.75;;;;;14.17;100.00;102012.81;4973068;28;44775;-83
2022/05/08 01:38:16;;;;;;;;;29.75;27.00;;;;;14.11;100.00;102011.38;4969960;28;44856;-84
2022/05/08 01:40:43;;;;;;;;;30.75;27.00;;;;;14.06;100.00;102013.47;4988399;28;45166;-82
2022/05/08 01:43:10;;;;;;;;;26.50;24.50;;;;;14.07;100.00;102020.53;4985136;28;44728;-84
2022/05/08 01:45:36;;;;;;;;;28.50;22.25;;;;;14.04;100.00;102010.91;4982203;28;44649;-84
2022/05/08 01:48:22;;;;;;;;;29.75;28.25;;;;;14.02;100.00;102020.84;4987850;28;45207;-84
2022/05/08 01:50:53;;;;;;;;;30.00;29.00;;;;;13.98;100.00;102027.31;4965946;28;45610;-83
2022/05/08 01:53:26;;;;;;;;;24.00;20.50;;;;;13.91;100.00;102025.09;4965512;28;44799;-83
2022/05/08 01:55:55;;;;;;;;;30.00;24.25;;;;;13.87;100.00;102019.06;4965500;28;44774;-84
2022/05/08 01:58:24;;;;;;;;;26.75;21.50;;;;;13.84;100.00;102019.28;4965637;28;44976;-86
2022/05/08 02:00:51;;;;;;;;;32.50;27.50;;;;;13.82;100.00;102019.34;4967293;28;46649;-84
2022/05/08 02:03:18;;;;;;;;;39.00;36.67;;;;;13.82;100.00;102021.16;4963544;28;44806;-83
2022/05/08 02:05:44;;;;;;;;;34.33;34.33;;;;;13.74;100.00;102026.13;4964490;28;44898;-83
2022/05/08 02:08:11;;;;;;;;;38.00;35.25;;;;;13.68;100.00;102026.47;4982536;28;44913;-82
2022/05/08 02:10:37;;;;;;;;;26.50;26.50;;;;;13.64;100.00;102017.78;4979364;28;46625;-84
2022/05/08 02:13:09;;;;;;;;;49.00;39.67;;;;;13.66;100.00;102023.03;4961968;28;45177;-85
2022/05/08 02:15:35;;;;;;;;;31.75;29.50;;;;;13.65;100.00;102024.00;4964638;28;44698;-82
2022/05/08 02:18:03;;;;;;;;;42.00;36.00;;;;;13.61;100.00;102023.31;4964425;28;44963;-83
2022/05/08 02:20:31;;;;;;;;;32.50;31.00;;;;;13.59;100.00;102022.56;4981390;28;45454;-84
2022/05/08 02:22:57;;;;;;;;;36.67;30.33;;;;;13.57;100.00;102011.06;4982150;28;45343;-85
2022/05/08 02:25:23;;;;;;;;;35.33;27.67;;;;;13.59;100.00;102023.41;4981319;28;44766;-83
2022/05/08 02:27:51;;;;;;;;;28.50;28.50;;;;;13.56;100.00;102020.03;4964054;28;45686;-84
2022/05/08 02:30:21;;;;;;;;;25.50;25.50;;;;;13.54;100.00;102028.16;4967011;28;46604;-84
2022/05/08 02:32:49;;;;;;;;;54.33;44.00;;;;;13.51;100.00;102030.13;4988256;28;45208;-84
2022/05/08 02:35:17;;;;;;;;;46.67;38.33;;;;;13.48;100.00;102027.63;4968180;28;44748;-84
2022/05/08 02:37:54;;;;;;;;;31.67;24.67;;;;;13.48;100.00;102032.97;4979509;28;45339;-84
2022/05/08 02:40:31;;;;;;;;;37.00;36.00;;;;;13.48;100.00;102031.16;4982091;28;47522;-82
2022/05/08 02:43:05;;;;;;;;;28.00;28.00;;;;;13.42;100.00;102050.22;4982796;28;44763;-83
2022/05/08 02:45:35;;;;;;;;;35.33;31.67;;;;;13.35;100.00;102035.53;4966649;28;45441;-85
2022/05/08 02:48:07;;;;;;;;;40.67;36.00;;;;;13.29;100.00;102031.38;4966758;28;45505;-83
2022/05/08 02:50:57;;;;;;;;;39.00;34.33;;;;;13.26;100.00;102036.91;4962071;28;45391;-83
2022/05/08 02:53:28;;;;;;;;;38.00;34.33;;;;;13.24;100.00;102037.91;4961317;28;45399;-84
2022/05/08 02:58:47;;;;;;;;;43.00;37.00;;;;;13.12;100.00;102045.66;4977819;28;44690;-84
2022/05/08 03:01:21;;;;;;;;;32.00;28.67;;;;;13.03;100.00;102045.31;4957899;28;46854;-85
2022/05/08 03:04:22;;;;;;;;;36.33;34.00;;;;;12.96;100.00;102050.16;4959238;28;44849;-83
2022/05/08 03:06:51;;;;;;;;;40.33;36.00;;;;;12.98;100.00;102061.56;4977218;28;45385;-84
2022/05/08 03:09:19;;;;;;;;;45.33;37.00;;;;;12.97;100.00;102062.53;4959924;28;45370;-84
2022/05/08 03:12:13;;;;;;;;;38.33;34.33;;;;;12.89;100.00;102067.41;4959889;28;45418;-84
2022/05/08 03:14:41;;;;;;;;;44.00;34.67;;;;;12.86;100.00;102051.56;4978418;28;44726;-84
2022/05/08 03:17:22;;;;;;;;;50.67;40.33;;;;;12.77;100.00;102057.44;4981540;28;45470;-84
2022/05/08 03:20:10;;;;;;;;;51.00;42.67;;;;;12.70;100.00;102056.03;4961612;28;44888;-85
2022/05/08 03:22:38;;;;;;;;;50.00;41.00;;;;;12.64;100.00;102048.38;4960696;28;45265;-84
2022/05/08 03:25:16;;;;;;;;;52.33;42.33;;;;;12.65;100.00;102068.75;4983382;28;44721;-85
2022/05/08 03:27:53;;;;;;;;;52.00;41.00;;;;;12.59;100.00;102065.50;4966425;28;45487;-84
2022/05/08 03:30:25;;;;;;;;;54.33;44.00;;;;;12.46;100.00;102071.56;4967414;28;45272;-83
2022/05/08 03:32:56;;;;;;;;;49.00;38.33;;;;;12.41;100.00;102070.94;4970581;28;46657;-85
2022/05/08 03:35:34;;;;;;;;;50.00;40.67;;;;;12.33;100.00;102085.56;4967668;28;45212;-83
2022/05/08 03:38:00;;;;;;;;;54.67;42.33;;;;;12.27;100.00;102069.00;4970754;28;45582;-83
2022/05/08 03:40:33;;;;;;;;;56.33;45.67;;;;;12.23;100.00;102078.97;4990066;28;45307;-84
2022/05/08 03:43:12;;;;;;;;;;;;;;;;;;;;;
2022/05/08 03:45:43;;;;;;;;;52.33;43.67;;;;;12.13;100.00;102069.72;4984071;28;71986;-83
2022/05/08 03:48:09;;;;;;;;;57.67;46.00;;;;;12.18;100.00;102067.69;4961390;28;45430;-84
2022/05/08 03:50:38;;;;;;;;;46.33;35.00;;;;;12.23;100.00;102073.66;4961771;28;44897;-84
2022/05/08 03:53:04;;;;;;;;;48.67;41.67;;;;;12.25;100.00;102070.91;4944455;28;46707;-83
2022/05/08 03:55:38;;;;;;;;;51.00;42.33;;;;;12.20;100.00;102079.13;4960608;28;45529;-83
2022/05/08 03:58:04;;;;;;;;;56.33;46.00;;;;;12.17;100.00;102081.09;4961141;28;45444;-83
2022/05/08 04:00:38;;;;;;;;;61.33;47.67;;;;;12.21;100.00;102082.66;4945994;28;45701;-84
2022/05/08 04:03:06;;;;;;;;;54.00;45.33;;;;;12.19;100.00;102084.56;4945651;28;45153;-84
2022/05/08 04:05:40;;;;;;;;;57.33;45.67;;;;;12.17;100.00;102078.41;4964126;28;44857;-86
2022/05/08 04:08:13;;;;;;;;;64.00;50.67;;;;;12.15;100.00;102075.00;4945047;28;44813;-84
2022/05/08 04:10:40;;;;;;;;;56.67;45.67;;;;;12.10;100.00;102093.88;4962633;28;45686;-83
2022/05/08 04:13:06;;;;;;;;;58.00;46.33;;;;;12.09;100.00;102081.50;4944868;28;45298;-84
2022/05/08 04:18:16;;;;;;;;;63.00;49.00;;;;;12.12;100.00;102081.31;4959574;28;44792;-84
2022/05/08 04:20:44;;;;;;;;;65.00;51.33;;;;;12.16;100.00;102084.69;4941906;28;45237;-85
2022/05/08 04:26:07;;;;;;;;;59.67;46.33;;;;;12.12;100.00;102076.00;4959643;28;45268;-83
2022/05/08 04:28:39;;;;;;;;;58.67;46.00;;;;;12.09;100.00;102085.03;4942647;28;45223;-85
2022/05/08 04:31:07;;;;;;;;;62.00;50.00;;;;;12.08;100.00;102085.94;4958426;28;44775;-84
2022/05/08 04:33:39;;;;;;;;;64.67;50.00;;;;;12.18;100.00;102086.31;4958461;28;45435;-83
2022/05/08 04:36:05;;;;;;;;;61.00;48.33;;;;;12.23;100.00;102094.97;4944532;28;45497;-84
2022/05/08 04:38:44;;;;;;;;;62.33;49.33;;;;;12.23;100.00;102091.41;4965285;28;44744;-84
2022/05/08 04:41:10;;;;;;;;;59.67;46.00;;;;;12.14;100.00;102097.25;4950127;28;44899;-84
2022/05/08 04:43:41;;;;;;;;;59.00;46.67;;;;;12.15;100.00;102093.63;4950296;28;46694;-84
2022/05/08 04:46:19;;;;;;;;;56.33;46.33;;;;;12.20;100.00;102095.13;4950370;28;45367;-84
2022/05/08 04:48:44;;;;;;;;;64.67;48.33;;;;;12.21;100.00;102090.66;4972409;28;44822;-85
2022/05/08 04:51:10;;;;;;;;;67.00;52.00;;;;;12.30;100.00;102096.34;4970748;28;44791;-83
2022/05/08 04:53:47;;;;;;;;;67.00;50.00;;;;;12.32;100.00;102096.28;4970323;28;45379;-84
2022/05/08 04:56:12;;;;;;;;;63.00;47.33;;;;;12.35;100.00;102099.63;4964426;28;45288;-83
2022/05/08 04:58:38;;;;;;;;;60.67;49.00;;;;;12.31;100.00;102110.53;4961483;28;45734;-84
2022/05/08 05:01:09;;;;;;;;;64.00;49.67;;;;;12.29;100.00;102107.09;4961289;28;44792;-84
2022/05/08 05:03:43;;;;;;;;;63.00;48.33;;;;;12.24;100.00;102126.00;4960914;28;46302;-85
2022/05/08 05:06:12;;;;;;;;;61.00;48.00;;;;;12.24;100.00;102112.66;4961096;28;45191;-83
2022/05/08 05:08:37;;;;;;;;;59.67;46.33;;;;;12.31;100.00;102121.19;4967039;28;44759;-84
2022/05/08 05:11:13;;;;;;;;;60.33;48.33;;;;;12.26;100.00;102121.44;4963298;28;44911;-85
2022/05/08 05:13:51;;;;;;;;;63.00;50.67;;;;;12.28;100.00;102134.66;4979766;28;45258;-84
2022/05/08 05:16:28;;;;;;;;;66.33;51.67;;;;;12.23;100.00;102134.94;4963030;28;45520;-84
2022/05/08 05:18:54;;;;;;;;;60.67;48.67;;;;;12.24;100.00;102143.78;4980831;28;45366;-84
2022/05/08 05:21:20;;;;;;;;;62.33;50.33;;;;;12.26;100.00;102132.09;4980029;28;45208;-84
2022/05/08 05:23:48;;;;;;;;;65.33;50.67;;;;;12.33;100.00;102138.00;4961628;28;45000;-84
2022/05/08 05:26:14;;;;;;;;;61.67;44.67;;;;;12.33;100.00;102144.19;4962190;28;44840;-84
2022/05/08 05:28:52;;;;;;;;;61.67;49.33;;;;;12.26;100.00;102129.44;4965149;28;44797;-83
2022/05/08 05:31:23;;;;;;;;;70.33;54.33;;;;;12.28;100.00;102142.66;4963455;28;44860;-83
2022/05/08 05:34:12;;;;;;;;;62.00;48.33;;;;;12.39;100.00;102142.13;4964218;28;45344;-85
2022/05/08 05:40:16;;;;;;;;;58.00;46.67;;;;;12.45;100.00;102136.47;4983267;28;44792;-85
2022/05/08 05:42:41;;;;;;;;;65.33;47.67;;;;;12.48;100.00;102147.00;4963657;28;44939;-84
2022/05/08 05:45:31;;;;;;;;;66.00;50.00;;;;;12.50;100.00;102147.75;4979586;28;45945;-83
2022/05/08 05:47:59;;;;;;;;;60.00;46.67;;;;;12.49;100.00;102148.69;4966703;28;45304;-83
2022/05/08 05:50:29;;;;;;;;;61.67;50.00;;;;;12.52;100.00;102161.84;4986420;28;45323;-84
2022/05/08 05:53:05;;;;;;;;;63.67;49.33;;;;;12.47;100.00;102151.44;4969809;28;44944;-84
2022/05/08 05:55:34;;;;;;;;;59.67;48.00;;;;;12.50;100.00;102159.28;4969786;28;45344;-83
2022/05/08 05:58:00;;;;;;;;;66.67;52.67;;;;;12.57;100.00;102144.69;4967757;28;44828;-85
2022/05/08 06:00:26;;;;;;;;;62.33;50.00;;;;;12.57;100.00;102154.47;4966268;28;45359;-84
2022/05/08 06:03:01;;;;;;;;;69.67;56.67;;;;;12.56;100.00;102155.41;4979780;28;44888;-83
2022/05/08 06:05:26;;;;;;;;;60.00;47.67;;;;;12.59;100.00;102157.94;4964631;28;46608;-84
2022/05/08 06:08:01;;;;;;;;;66.67;52.67;;;;;12.69;100.00;102160.97;4967573;28;45519;-84
2022/05/08 06:10:39;;;;;;;;;59.67;47.33;;;;;12.71;100.00;102162.59;4985571;28;44945;-84
2022/05/08 06:13:27;;;;;;;;;62.33;49.67;;;;;12.61;100.00;102164.91;4966424;28;45310;-84
2022/05/08 06:16:05;;;;;;;;;64.67;51.67;;;;;12.57;100.00;102155.38;4963459;28;46323;-85
2022/05/08 06:18:34;;;;;;;;;56.67;43.00;;;;;12.66;100.00;102163.78;4962499;28;44822;-84
2022/05/08 06:21:02;;;;;;;;;64.67;52.00;;;;;12.79;100.00;102170.22;4977453;28;45446;-85
2022/05/08 06:23:35;;;;;;;;;59.67;48.33;;;;;12.78;100.00;102161.34;4960194;28;44919;-85
2022/05/08 06:26:18;;;;;;;;;71.33;55.67;;;;;12.85;100.00;102170.72;4960367;28;46600;-84
2022/05/08 06:28:45;;;;;;;;;68.67;54.33;;;;;12.86;100.00;102155.59;4977493;28;44794;-84
2022/05/08 06:31:15;;;;;;;;;72.33;57.00;;;;;12.88;100.00;102176.88;4961832;28;45572;-85
2022/05/08 06:33:43;;;;;;;;;62.67;49.67;;;;;12.87;100.00;102154.66;4979133;28;44920;-85
2022/05/08 06:36:28;;;;;;;;;71.33;53.00;;;;;12.90;100.00;102164.28;4985492;28;45286;-83
2022/05/08 06:39:39;;;;;;;;;;;;;;;;;;;;;
2022/05/08 06:42:06;;;;;;;;;70.00;50.67;;;;;12.90;100.00;102165.16;4958174;28;68010;-85
2022/05/08 06:44:32;;;;;;;;;74.00;57.00;;;;;12.91;100.00;102160.69;4960127;28;44879;-84
2022/05/08 06:47:19;;;;;;;;;75.00;57.00;;;;;12.94;100.00;102168.53;4960155;28;45566;-84
2022/05/08 06:50:30;;;;;;;;;69.67;54.67;;;;;12.98;100.00;102165.63;4961354;28;45570;-85
2022/05/08 06:53:04;;;;;;;;;60.33;47.67;;;;;13.03;100.00;102168.03;4962232;28;45272;-84
2022/05/08 06:55:34;;;;;;;;;66.67;55.00;;;;;13.13;100.00;102171.91;4965257;28;45573;-84
2022/05/08 06:58:17;;;;;;;;;63.50;48.00;;;;;13.11;100.00;102173.81;4970655;28;46637;-85
2022/05/08 07:03:55;;;;;;;;;74.00;58.00;;;;;13.01;100.00;102188.59;4990290;28;44745;-85
2022/05/08 07:06:26;;;;;;;;;66.33;51.33;;;;;13.07;100.00;102183.78;4968439;28;45534;-84
2022/05/08 07:08:56;;;;;;;;;67.00;52.33;;;;;13.14;100.00;102186.97;4958729;28;45322;-84
2022/05/08 07:11:25;;;;;;;;;66.00;51.33;;;;;13.21;100.00;102180.38;4944339;28;44847;-85
2022/05/08 07:13:51;;;;;;;;;63.67;49.33;;;;;13.25;100.00;102181.13;4944113;28;44989;-85
2022/05/08 07:16:18;;;;;;;;;71.00;52.33;;;;;13.27;100.00;102187.22;4944104;28;44940;-83
2022/05/08 07:18:43;;;;;;;;;68.33;55.00;;;;;13.33;100.00;102193.06;4961307;28;45277;-85
2022/05/08 07:21:11;;;;;;;;;62.33;48.33;;;;;13.38;100.00;102188.31;4944637;28;45321;-85
2022/05/08 07:23:37;;;;;;;;;62.33;50.00;;;;;13.43;100.00;102188.06;4960833;28;45364;-86
2022/05/08 07:26:02;;;;;;;;;62.33;51.33;;;;;13.42;100.00;102185.50;4961279;28;44980;-84
2022/05/08 07:28:28;;;;;;;;;75.33;56.33;;;;;13.44;100.00;102195.16;4946872;28;45454;-85
2022/05/08 07:30:54;;;;;;;;;65.67;51.67;;;;;13.52;100.00;102192.91;4947747;28;44793;-85
2022/05/08 07:33:19;;;;;;;;;61.00;46.00;;;;;13.52;100.00;102198.25;4952412;28;44846;-85
2022/05/08 07:38:32;;;;;;;;;62.67;50.67;;;;;13.54;100.00;102199.03;4967801;28;45559;-86
2022/05/08 07:41:02;;;;;;;;;62.00;50.00;;;;;13.51;100.00;102195.66;4968968;28;44875;-85
2022/05/08 07:43:28;;;;;;;;;55.67;40.00;;;;;13.46;100.00;102198.59;4935155;28;45394;-84
2022/05/08 07:45:53;;;;;;;;;70.33;51.67;;;;;13.42;100.00;102197.03;4948530;28;45387;-85
2022/05/08 07:48:19;;;;;;;;;71.00;54.00;;;;;13.45;100.00;102204.88;4962620;28;46857;-85
2022/05/08 07:50:48;;;;;;;;;66.67;51.00;;;;;13.55;100.00;102200.75;4931274;28;45322;-83
2022/05/08 07:53:14;;;;;;;;;52.33;45.00;;;;;13.65;100.00;102203.78;4930356;28;45394;-85
2022/05/08 07:55:40;;;;;;;;;71.33;53.67;;;;;13.66;100.00;102207.28;4960311;28;45495;-85
2022/05/08 07:58:11;;;;;;;;;66.33;53.00;;;;;13.69;100.00;102208.00;4945419;28;44985;-84
2022/05/08 08:00:39;;;;;;;;;58.33;45.33;;;;;13.71;100.00;102198.06;4947922;28;45397;-85
2022/05/08 08:03:05;;;;;;;;;53.67;43.00;;;;;13.83;100.00;102200.06;4953691;28;44752;-85
2022/05/08 08:05:30;;;;;;;;;63.67;48.33;;;;;13.97;100.00;102204.59;4951215;28;44744;-85
2022/05/08 08:08:25;;;;;;;;;58.33;49.33;;;;;13.97;100.00;102207.25;4928926;28;45334;-86
2022/05/08 08:11:53;;;;;;;;;57.00;47.00;;;;;14.01;100.00;102206.13;4943439;28;45316;-84
2022/05/08 08:15:06;;;;;;;;;58.33;47.00;;;;;14.09;100.00;102208.38;4884327;29;44965;-85
2022/05/08 08:17:45;;;;;;;;;55.33;47.00;;;;;14.15;100.00;102202.66;4885545;29;45252;-84
2022/05/08 08:20:39;;;;;;;;;;;;;;;;;;;;;
2022/05/08 08:26:47;;;;;;;;;58.00;46.00;;;;;14.15;100.00;102214.22;4909144;28;44918;-84
2022/05/08 08:30:14;;;;;;;;;62.33;49.00;;;;;14.23;100.00;102199.56;4894639;29;44863;-85
2022/05/08 08:37:19;;;;;;;;;56.00;44.33;;;;;14.45;100.00;102201.78;4811228;29;45369;-85
2022/05/08 08:40:06;;;;;;;;;54.33;39.33;;;;;14.49;100.00;102208.72;4825814;29;44834;-84
2022/05/08 08:50:01;;;;;;;;;57.00;43.67;;;;;14.56;100.00;102210.94;4819947;29;45417;-87
2022/05/08 08:52:30;;;;;;;;;42.33;38.33;;;;;14.72;100.00;102207.34;4806875;29;45501;-86
2022/05/08 08:55:20;;;;;;;;;54.00;38.00;;;;;14.63;100.00;102198.91;4791786;29;45555;-85
2022/05/08 08:57:49;;;;;;;;;56.00;41.00;;;;;14.70;100.00;102211.91;4806879;29;45490;-85
2022/05/08 09:00:35;;;;;;;;;48.67;38.67;;;;;14.91;100.00;102194.56;4792614;29;44762;-85
2022/05/08 09:03:03;;;;;;;;;47.33;37.33;;;;;14.93;100.00;102197.13;4810333;29;45680;-85
2022/05/08 09:05:44;;;;;;;;;52.33;40.33;;;;;15.17;100.00;102188.41;4820788;29;44862;-85
2022/05/08 09:08:41;;;;;;;;;55.00;44.33;;;;;15.29;100.00;102193.97;4888842;29;47036;-85
2022/05/08 09:24:38;;;;;;;;;45.33;37.67;;;;;15.92;100.00;102210.41;4857711;29;44823;-85
2022/05/08 09:34:58;;;;;;;;;53.67;41.67;;;;;15.73;100.00;102192.97;4793074;29;45091;-87
2022/05/08 09:37:50;;;;;;;;;52.67;40.67;;;;;15.92;100.00;102174.72;4796261;29;44936;-87
2022/05/08 09:43:53;;;;;;;;;62.33;48.00;;;;;15.96;100.00;102199.50;4782110;29;45616;-86
2022/05/08 09:46:50;;;;;;;;;73.33;59.00;;;;;16.28;100.00;102189.28;4778045;29;45548;-87
2022/05/08 09:49:49;;;;;;;;;46.00;36.67;;;;;16.30;100.00;102200.78;4788429;29;45302;-85
2022/05/08 10:32:18;;;;;;;;;57.00;43.67;;;;;17.77;100.00;102168.88;4734370;30;44901;-86
2022/05/08 10:42:45;;;;;;;;;50.33;42.67;;;;;18.04;100.00;102153.38;4778350;29;45661;-86
2022/05/08 10:49:46;;;;;;;;;;;;;;;;;;;;;
2022/05/08 10:52:41;;;;;;;;;45.33;35.33;;;;;18.26;100.00;102176.78;4772648;29;69249;-86
2022/05/08 10:55:18;;;;;;;;;41.00;33.33;;;;;18.37;100.00;102141.88;4772668;29;45542;-86
2022/05/08 11:01:35;;;;;;;;;;;;;;;;;;;;;
2022/05/08 11:04:21;;;;;;;;;54.00;43.00;;;;;18.55;100.00;102150.31;4764666;29;69093;-86
2022/05/08 11:07:04;;;;;;;;;53.67;41.33;;;;;18.71;100.00;102144.63;4756334;29;45276;-86
2022/05/08 11:10:18;;;;;;;;;56.67;44.67;;;;;18.77;100.00;102146.00;4757283;29;45388;-85
2022/05/08 11:13:17;;;;;;;;;55.00;43.67;;;;;19.00;100.00;102143.19;4776091;29;44903;-86
2022/05/08 11:22:32;;;;;;;;;56.00;44.67;;;;;18.80;100.00;102153.81;4793928;29;45320;-87
2022/05/08 11:25:20;;;;;;;;;53.33;45.00;;;;;18.85;100.00;102148.91;4789684;29;45448;-85
2022/05/08 11:28:00;;;;;;;;;48.00;41.67;;;;;18.73;100.00;102145.38;4790994;29;45459;-85
2022/05/08 11:31:00;;;;;;;;;55.33;45.33;;;;;18.69;100.00;102131.28;4789911;29;46914;-87
2022/05/08 11:37:11;;;;;;;;;;;;;;;;;;;;;
2022/05/08 11:40:50;;;;;;;;;41.00;35.33;;;;;19.05;100.00;102142.81;4857674;29;69212;-86
2022/05/08 11:43:51;;;;;;;;;56.00;42.33;;;;;19.07;100.00;102130.06;4828173;29;45087;-85
2022/05/08 11:46:31;;;;;;;;;51.33;42.00;;;;;19.40;100.00;102123.78;4811424;29;45582;-87
2022/05/08 11:49:54;;;;;;;;;63.67;47.33;;;;;19.44;100.00;102132.47;4830485;29;44753;-86
2022/05/08 11:52:31;;;;;;;;;55.33;43.33;;;;;19.53;100.00;102123.59;4844720;29;45476;-86
2022/05/08 11:55:59;;;;;;;;;56.67;44.00;;;;;19.49;100.00;102122.16;4811487;29;45462;-86
2022/05/08 12:01:48;;;;;;;;;51.33;41.33;;;;;19.77;100.00;102123.44;4819769;29;45494;-86
2022/05/08 12:04:59;;;;;;;;;49.33;39.33;;;;;19.86;100.00;102116.41;4817360;29;45283;-86
2022/05/08 12:07:52;;;;;;;;;46.67;37.00;;;;;20.05;100.00;102111.16;4827271;29;45426;-83
2022/05/08 12:10:43;;;;;;;;;49.33;42.00;;;;;19.86;100.00;102119.09;4826621;29;45293;-85
2022/05/08 12:13:24;;;;;;;;;57.00;47.33;;;;;19.78;100.00;102098.19;4818025;29;44911;-86
2022/05/08 12:16:18;;;;;;;;;56.67;44.67;;;;;19.64;100.00;102102.06;4814281;29;44915;-86
2022/05/08 12:19:33;;;;;;;;;55.67;42.00;;;;;19.99;100.00;102114.41;4823844;29;45307;-84
2022/05/08 12:22:17;;;;;;;;;45.33;38.67;;;;;20.00;100.00;102087.28;4872110;29;44869;-85
2022/05/08 12:24:58;;;;;;;;;51.67;40.67;;;;;20.03;100.00;102103.22;4875574;29;44777;-87
2022/05/08 12:27:37;;;;;;;;;49.67;40.00;;;;;20.08;100.00;102089.34;4871442;29;44912;-86
2022/05/08 12:30:16;;;;;;;;;54.67;44.67;;;;;20.37;100.00;102105.72;4848169;29;46139;-84
2022/05/08 12:33:15;;;;;;;;;36.33;33.33;;;;;20.37;100.00;102089.50;4847117;29;45233;-86
2022/05/08 12:36:34;;;;;;;;;52.33;43.33;;;;;20.51;100.00;102097.31;4880673;29;44914;-86
2022/05/08 12:42:03;;;;;;;;;46.33;39.00;;;;;20.74;100.00;102084.47;4884162;29;45648;-86
2022/05/08 12:44:40;;;;;;;;;48.00;39.00;;;;;20.80;100.00;102080.38;4808133;29;45301;-86
2022/05/08 12:47:25;;;;;;;;;52.67;42.67;;;;;20.79;100.00;102076.81;4799638;29;45322;-86
2022/05/08 12:49:53;;;;;;;;;53.33;44.00;;;;;20.76;100.00;102079.78;4791133;29;45505;-86
2022/05/08 12:52:45;;;;;;;;;55.00;45.67;;;;;20.98;100.00;102062.53;4790175;29;45561;-87
2022/05/08 12:55:11;;;;;;;;;24.75;23.25;;;;;21.14;100.00;102085.47;4789199;29;45389;-86
2022/05/08 13:00:44;;;;;;;;;37.50;34.75;;;;;21.15;100.00;102062.84;4791461;29;45236;-86
2022/05/08 13:17:42;;;;;;;;;46.00;38.50;;;;;22.31;100.00;102046.59;4801129;29;45158;-85
2022/05/08 13:23:31;;;;;;;;;33.00;29.50;;;;;23.18;100.00;102027.22;4811004;29;44956;-87
2022/05/08 13:33:25;;;;;;;;;;;;;;;;;;;;;
2022/05/08 13:36:36;;;;;;;;;;;;;;;;;;;;;
2022/05/08 13:39:49;;;;;;;;;;;;;;;;;;;;;
2022/05/08 13:46:36;;;;;;;;;;;;;;;;;;;;;
2022/05/08 13:49:37;;;;;;;;;33.25;32.00;;;;;23.95;96.56;102017.59;4634064;30;67484;-85
2022/05/08 13:52:37;;;;;;;;;34.00;32.50;;;;;24.31;90.98;102001.16;4665342;30;45350;-86
2022/05/08 13:55:38;;;;;;;;;34.00;33.00;;;;;23.82;91.70;101998.13;4665757;30;45327;-86
2022/05/08 14:06:00;;;;;;;;;24.50;24.50;;;;;24.05;94.03;101996.59;4584019;30;45624;-85
2022/05/08 14:08:54;;;;;;;;;19.40;19.40;;;;;24.05;84.84;102001.19;4618495;30;45270;-86
2022/05/08 14:19:28;;;;;;;;;;;;;;;;;;;;;
2022/05/08 14:41:51;;;;;;;;;;;;;;;;;;;;;
2022/05/08 14:44:31;;;;;;;;;;;;;;;;;;;;;
2022/05/08 14:47:47;;;;;;;;;18.60;17.60;;;;;24.59;70.99;101964.63;4551399;31;69364;-85
2022/05/08 14:53:57;;;;;;;;;10.20;8.20;;;;;26.10;62.69;101967.97;4606551;30;45281;-85
2022/05/08 15:00:24;;;;;;;;;;;;;;;;;;;;;
2022/05/08 15:03:14;;;;;;;;;9.60;9.60;;;;;25.35;67.06;101960.91;4583921;31;74133;-85
2022/05/08 15:05:42;;;;;;;;;22.80;15.00;;;;;25.52;62.13;101964.47;4596906;30;44997;-85
2022/05/08 15:08:24;;;;;;;;;11.00;10.80;;;;;25.56;72.32;101956.81;4627406;30;45550;-86
2022/05/08 15:11:39;;;;;;;;;12.80;11.60;;;;;25.72;58.47;101964.09;4637394;30;45364;-84
2022/05/08 15:14:11;;;;;;;;;9.20;9.20;;;;;26.06;67.45;101950.28;4681014;30;48418;-86
2022/05/08 15:20:40;;;;;;;;;18.00;13.00;;;;;25.17;70.09;101946.63;4702837;30;44858;-85
2022/05/08 15:24:25;;;;;;;;;8.20;8.20;;;;;25.65;67.32;101939.44;4702643;30;45084;-85
2022/05/08 15:27:24;;;;;;;;;16.20;15.40;;;;;26.25;60.28;101938.13;4676806;30;46700;-86
2022/05/08 15:29:58;;;;;;;;;13.60;12.60;;;;;26.29;57.49;101948.50;4650960;30;45319;-86
2022/05/08 15:32:26;;;;;;;;;15.80;14.00;;;;;25.75;61.14;101947.44;4637080;30;44772;-86